sensor_id;sensor_type;location;lat;lon;timestamp;temperature;humidity
71672;DHT22;67659;45.554;11.812;2023-03-14T00:02:20;15.00;83.10
71672;DHT22;67659;45.554;11.812;2023-03-14T00:04:46;15.00;83.60
71672;DHT22;67659;45.554;11.812;2023-03-14T00:07:12;14.90;83.90
71672;DHT22;67659;45.554;11.812;2023-03-14T00:09:38;14.90;84.90
71672;DHT22;67659;45.554;11.812;2023-03-14T00:12:04;14.90;86.90
71672;DHT22;67659;45.554;11.812;2023-03-14T00:14:31;15.00;86.90
71672;DHT22;67659;45.554;11.812;2023-03-14T00:16:57;15.00;86.30
71672;DHT22;67659;45.554;11.812;2023-03-14T00:19:23;15.10;86.00
71672;DHT22;67659;45.554;11.812;2023-03-14T00:21:48;15.00;86.40
71672;DHT22;67659;45.554;11.812;2023-03-14T00:24:14;15.10;86.40
71672;DHT22;67659;45.554;11.812;2023-03-14T00:26:40;15.10;86.10
71672;DHT22;67659;45.554;11.812;2023-03-14T00:29:06;15.10;86.80
71672;DHT22;67659;45.554;11.812;2023-03-14T00:31:31;15.10;87.20
71672;DHT22;67659;45.554;11.812;2023-03-14T00:33:57;15.00;87.30
71672;DHT22;67659;45.554;11.812;2023-03-14T00:36:23;15.00;88.00
71672;DHT22;67659;45.554;11.812;2023-03-14T00:38:50;14.90;89.40
71672;DHT22;67659;45.554;11.812;2023-03-14T00:41:19;14.90;89.70
71672;DHT22;67659;45.554;11.812;2023-03-14T00:43:45;14.90;90.90
71672;DHT22;67659;45.554;11.812;2023-03-14T00:46:12;14.90;90.40
71672;DHT22;67659;45.554;11.812;2023-03-14T00:48:39;14.90;89.60
71672;DHT22;67659;45.554;11.812;2023-03-14T00:51:05;14.90;89.30
71672;DHT22;67659;45.554;11.812;2023-03-14T00:53:35;15.00;89.00
71672;DHT22;67659;45.554;11.812;2023-03-14T00:56:03;14.90;89.10
71672;DHT22;67659;45.554;11.812;2023-03-14T00:58:29;15.10;89.60
71672;DHT22;67659;45.554;11.812;2023-03-14T01:00:55;15.00;89.80
71672;DHT22;67659;45.554;11.812;2023-03-14T01:03:21;14.80;90.60
71672;DHT22;67659;45.554;11.812;2023-03-14T01:05:46;14.70;91.60
71672;DHT22;67659;45.554;11.812;2023-03-14T01:08:12;14.50;93.00
71672;DHT22;67659;45.554;11.812;2023-03-14T01:10:39;14.60;93.60
71672;DHT22;67659;45.554;11.812;2023-03-14T01:13:06;14.60;94.00
71672;DHT22;67659;45.554;11.812;2023-03-14T01:15:33;14.60;93.80
71672;DHT22;67659;45.554;11.812;2023-03-14T01:17:59;14.70;93.20
71672;DHT22;67659;45.554;11.812;2023-03-14T01:20:25;14.60;92.70
71672;DHT22;67659;45.554;11.812;2023-03-14T01:22:51;14.80;92.20
71672;DHT22;67659;45.554;11.812;2023-03-14T01:25:17;14.80;93.00
71672;DHT22;67659;45.554;11.812;2023-03-14T01:27:43;14.80;93.10
71672;DHT22;67659;45.554;11.812;2023-03-14T01:30:11;14.80;93.50
71672;DHT22;67659;45.554;11.812;2023-03-14T01:32:37;14.80;93.70
71672;DHT22;67659;45.554;11.812;2023-03-14T01:35:03;14.80;93.70
71672;DHT22;67659;45.554;11.812;2023-03-14T01:37:29;14.70;94.00
71672;DHT22;67659;45.554;11.812;2023-03-14T01:39:55;14.60;95.00
71672;DHT22;67659;45.554;11.812;2023-03-14T01:42:21;14.70;94.80
71672;DHT22;67659;45.554;11.812;2023-03-14T01:44:58;14.70;95.10
71672;DHT22;67659;45.554;11.812;2023-03-14T01:47:25;14.60;95.50
71672;DHT22;67659;45.554;11.812;2023-03-14T01:50:11;14.70;94.70
71672;DHT22;67659;45.554;11.812;2023-03-14T01:52:47;14.70;95.60
71672;DHT22;67659;45.554;11.812;2023-03-14T01:55:17;14.60;95.90
71672;DHT22;67659;45.554;11.812;2023-03-14T01:57:49;14.60;95.60
71672;DHT22;67659;45.554;11.812;2023-03-14T02:00:18;14.70;95.90
71672;DHT22;67659;45.554;11.812;2023-03-14T02:02:48;14.60;95.70
71672;DHT22;67659;45.554;11.812;2023-03-14T02:05:18;14.60;96.00
71672;DHT22;67659;45.554;11.812;2023-03-14T02:08:06;14.70;96.00
71672;DHT22;67659;45.554;11.812;2023-03-14T02:10:37;14.60;96.40
71672;DHT22;67659;45.554;11.812;2023-03-14T02:13:05;14.60;96.80
71672;DHT22;67659;45.554;11.812;2023-03-14T02:15:31;14.50;96.80
71672;DHT22;67659;45.554;11.812;2023-03-14T02:17:59;14.40;96.70
71672;DHT22;67659;45.554;11.812;2023-03-14T02:23:06;14.40;96.90
71672;DHT22;67659;45.554;11.812;2023-03-14T02:28:10;14.30;97.70
71672;DHT22;67659;45.554;11.812;2023-03-14T02:30:37;14.40;97.60
71672;DHT22;67659;45.554;11.812;2023-03-14T02:33:08;14.40;97.40
71672;DHT22;67659;45.554;11.812;2023-03-14T02:35:44;14.50;97.80
71672;DHT22;67659;45.554;11.812;2023-03-14T02:38:19;14.50;97.60
71672;DHT22;67659;45.554;11.812;2023-03-14T02:40:46;14.60;98.10
71672;DHT22;67659;45.554;11.812;2023-03-14T02:43:13;14.50;97.80
71672;DHT22;67659;45.554;11.812;2023-03-14T02:45:47;14.60;98.10
71672;DHT22;67659;45.554;11.812;2023-03-14T02:48:17;14.50;98.20
71672;DHT22;67659;45.554;11.812;2023-03-14T02:50:45;14.50;98.40
71672;DHT22;67659;45.554;11.812;2023-03-14T02:53:13;14.50;98.30
71672;DHT22;67659;45.554;11.812;2023-03-14T02:55:39;14.40;98.90
71672;DHT22;67659;45.554;11.812;2023-03-14T02:58:05;14.30;99.40
71672;DHT22;67659;45.554;11.812;2023-03-14T03:00:31;14.30;99.40
71672;DHT22;67659;45.554;11.812;2023-03-14T03:02:57;14.40;99.80
71672;DHT22;67659;45.554;11.812;2023-03-14T03:05:22;14.30;99.90
71672;DHT22;67659;45.554;11.812;2023-03-14T03:07:48;14.40;99.80
71672;DHT22;67659;45.554;11.812;2023-03-14T03:10:14;14.40;99.90
71672;DHT22;67659;45.554;11.812;2023-03-14T03:12:40;14.40;99.90
71672;DHT22;67659;45.554;11.812;2023-03-14T03:15:06;14.40;99.90
71672;DHT22;67659;45.554;11.812;2023-03-14T03:17:32;14.30;99.90
71672;DHT22;67659;45.554;11.812;2023-03-14T03:19:57;14.50;99.90
71672;DHT22;67659;45.554;11.812;2023-03-14T03:22:23;14.40;99.90
71672;DHT22;67659;45.554;11.812;2023-03-14T03:24:49;14.40;99.90
71672;DHT22;67659;45.554;11.812;2023-03-14T03:27:15;14.20;99.90
71672;DHT22;67659;45.554;11.812;2023-03-14T03:29:40;14.30;99.90
71672;DHT22;67659;45.554;11.812;2023-03-14T03:32:06;14.40;99.90
71672;DHT22;67659;45.554;11.812;2023-03-14T03:34:32;14.40;99.90
71672;DHT22;67659;45.554;11.812;2023-03-14T03:36:58;14.40;99.90
71672;DHT22;67659;45.554;11.812;2023-03-14T03:39:24;14.50;99.90
71672;DHT22;67659;45.554;11.812;2023-03-14T03:41:49;14.40;99.90
71672;DHT22;67659;45.554;11.812;2023-03-14T03:44:15;14.50;99.90
71672;DHT22;67659;45.554;11.812;2023-03-14T03:46:41;14.40;99.90
71672;DHT22;67659;45.554;11.812;2023-03-14T03:49:07;14.50;99.90
71672;DHT22;67659;45.554;11.812;2023-03-14T03:51:32;14.60;99.90
71672;DHT22;67659;45.554;11.812;2023-03-14T03:53:58;14.60;99.90
71672;DHT22;67659;45.554;11.812;2023-03-14T03:56:24;14.60;99.90
71672;DHT22;67659;45.554;11.812;2023-03-14T03:58:50;14.60;99.90
71672;DHT22;67659;45.554;11.812;2023-03-14T04:01:15;14.50;99.90
71672;DHT22;67659;45.554;11.812;2023-03-14T04:03:41;14.50;99.90
71672;DHT22;67659;45.554;11.812;2023-03-14T04:06:10;14.40;99.90
71672;DHT22;67659;45.554;11.812;2023-03-14T04:08:37;14.30;99.90
71672;DHT22;67659;45.554;11.812;2023-03-14T04:11:03;14.30;99.90
71672;DHT22;67659;45.554;11.812;2023-03-14T04:13:29;14.40;99.90
71672;DHT22;67659;45.554;11.812;2023-03-14T04:15:55;14.30;99.90
71672;DHT22;67659;45.554;11.812;2023-03-14T04:18:22;14.40;99.90
71672;DHT22;67659;45.554;11.812;2023-03-14T04:20:54;14.40;99.90
71672;DHT22;67659;45.554;11.812;2023-03-14T04:23:21;14.40;99.90
71672;DHT22;67659;45.554;11.812;2023-03-14T04:25:50;14.40;99.90
71672;DHT22;67659;45.554;11.812;2023-03-14T04:28:16;14.10;99.90
71672;DHT22;67659;45.554;11.812;2023-03-14T04:30:42;13.90;99.90
71672;DHT22;67659;45.554;11.812;2023-03-14T04:33:08;13.70;99.90
71672;DHT22;67659;45.554;11.812;2023-03-14T04:35:34;13.70;99.90
71672;DHT22;67659;45.554;11.812;2023-03-14T04:38:00;13.60;99.90
71672;DHT22;67659;45.554;11.812;2023-03-14T04:40:26;13.60;99.90
71672;DHT22;67659;45.554;11.812;2023-03-14T04:42:52;13.60;99.90
71672;DHT22;67659;45.554;11.812;2023-03-14T04:45:18;13.50;99.90
71672;DHT22;67659;45.554;11.812;2023-03-14T04:47:44;13.50;99.90
71672;DHT22;67659;45.554;11.812;2023-03-14T04:50:10;13.60;99.90
71672;DHT22;67659;45.554;11.812;2023-03-14T04:52:36;13.60;99.90
71672;DHT22;67659;45.554;11.812;2023-03-14T04:55:02;13.80;99.90
71672;DHT22;67659;45.554;11.812;2023-03-14T04:57:28;13.90;99.90
71672;DHT22;67659;45.554;11.812;2023-03-14T04:59:53;14.00;99.90
71672;DHT22;67659;45.554;11.812;2023-03-14T05:02:19;14.00;99.90
71672;DHT22;67659;45.554;11.812;2023-03-14T05:04:45;14.00;99.90
71672;DHT22;67659;45.554;11.812;2023-03-14T05:07:11;14.00;99.90
71672;DHT22;67659;45.554;11.812;2023-03-14T05:09:36;14.10;99.90
71672;DHT22;67659;45.554;11.812;2023-03-14T05:12:02;14.10;99.90
71672;DHT22;67659;45.554;11.812;2023-03-14T05:14:28;14.00;99.90
71672;DHT22;67659;45.554;11.812;2023-03-14T05:16:54;14.00;99.90
71672;DHT22;67659;45.554;11.812;2023-03-14T05:19:20;13.90;99.90
71672;DHT22;67659;45.554;11.812;2023-03-14T05:21:46;13.90;99.90
71672;DHT22;67659;45.554;11.812;2023-03-14T05:24:11;14.00;99.90
71672;DHT22;67659;45.554;11.812;2023-03-14T05:26:37;14.00;99.90
71672;DHT22;67659;45.554;11.812;2023-03-14T05:29:03;14.00;99.90
71672;DHT22;67659;45.554;11.812;2023-03-14T05:31:29;14.00;99.90
71672;DHT22;67659;45.554;11.812;2023-03-14T05:33:54;14.10;99.90
71672;DHT22;67659;45.554;11.812;2023-03-14T05:36:20;14.10;99.60
71672;DHT22;67659;45.554;11.812;2023-03-14T05:38:46;14.00;99.90
71672;DHT22;67659;45.554;11.812;2023-03-14T05:41:12;14.00;99.80
71672;DHT22;67659;45.554;11.812;2023-03-14T05:43:38;14.00;99.90
71672;DHT22;67659;45.554;11.812;2023-03-14T05:46:05;13.90;99.70
71672;DHT22;67659;45.554;11.812;2023-03-14T05:48:30;13.90;99.60
71672;DHT22;67659;45.554;11.812;2023-03-14T05:50:57;14.00;99.40
71672;DHT22;67659;45.554;11.812;2023-03-14T05:53:25;13.90;99.60
71672;DHT22;67659;45.554;11.812;2023-03-14T05:55:54;13.70;99.90
71672;DHT22;67659;45.554;11.812;2023-03-14T05:58:20;13.70;99.90
71672;DHT22;67659;45.554;11.812;2023-03-14T06:00:46;13.80;99.80
71672;DHT22;67659;45.554;11.812;2023-03-14T06:03:12;14.00;99.70
71672;DHT22;67659;45.554;11.812;2023-03-14T06:05:38;14.00;99.60
71672;DHT22;67659;45.554;11.812;2023-03-14T06:08:04;14.00;99.60
71672;DHT22;67659;45.554;11.812;2023-03-14T06:10:30;13.90;99.20
71672;DHT22;67659;45.554;11.812;2023-03-14T06:12:56;13.70;99.90
71672;DHT22;67659;45.554;11.812;2023-03-14T06:15:21;13.70;99.90
71672;DHT22;67659;45.554;11.812;2023-03-14T06:17:47;13.70;99.90
71672;DHT22;67659;45.554;11.812;2023-03-14T06:20:13;13.60;99.90
71672;DHT22;67659;45.554;11.812;2023-03-14T06:22:39;13.80;99.60
71672;DHT22;67659;45.554;11.812;2023-03-14T06:25:07;13.60;99.90
71672;DHT22;67659;45.554;11.812;2023-03-14T06:27:33;13.70;99.90
71672;DHT22;67659;45.554;11.812;2023-03-14T06:29:59;13.40;99.90
71672;DHT22;67659;45.554;11.812;2023-03-14T06:32:25;13.10;99.90
71672;DHT22;67659;45.554;11.812;2023-03-14T06:34:51;13.30;99.90
71672;DHT22;67659;45.554;11.812;2023-03-14T06:37:17;13.30;99.90
71672;DHT22;67659;45.554;11.812;2023-03-14T06:39:43;13.50;99.90
71672;DHT22;67659;45.554;11.812;2023-03-14T06:42:10;13.60;99.90
71672;DHT22;67659;45.554;11.812;2023-03-14T06:44:36;13.50;99.90
71672;DHT22;67659;45.554;11.812;2023-03-14T06:47:02;13.70;99.90
71672;DHT22;67659;45.554;11.812;2023-03-14T06:49:28;13.70;99.90
71672;DHT22;67659;45.554;11.812;2023-03-14T06:51:53;13.80;99.90
71672;DHT22;67659;45.554;11.812;2023-03-14T06:54:19;13.80;99.90
71672;DHT22;67659;45.554;11.812;2023-03-14T06:56:45;13.80;99.90
71672;DHT22;67659;45.554;11.812;2023-03-14T06:59:11;13.90;99.90
71672;DHT22;67659;45.554;11.812;2023-03-14T07:01:37;13.80;99.90
71672;DHT22;67659;45.554;11.812;2023-03-14T07:04:03;13.80;99.90
71672;DHT22;67659;45.554;11.812;2023-03-14T07:06:28;13.80;99.90
71672;DHT22;67659;45.554;11.812;2023-03-14T07:08:56;13.80;99.90
71672;DHT22;67659;45.554;11.812;2023-03-14T07:11:22;13.80;99.90
71672;DHT22;67659;45.554;11.812;2023-03-14T07:13:48;13.80;99.90
71672;DHT22;67659;45.554;11.812;2023-03-14T07:16:13;13.70;99.90
71672;DHT22;67659;45.554;11.812;2023-03-14T07:18:39;13.70;99.90
71672;DHT22;67659;45.554;11.812;2023-03-14T07:21:07;13.70;99.90
71672;DHT22;67659;45.554;11.812;2023-03-14T07:23:34;13.90;99.90
71672;DHT22;67659;45.554;11.812;2023-03-14T07:26:01;13.80;99.90
71672;DHT22;67659;45.554;11.812;2023-03-14T07:28:27;13.80;99.90
71672;DHT22;67659;45.554;11.812;2023-03-14T07:30:53;13.80;99.90
71672;DHT22;67659;45.554;11.812;2023-03-14T07:33:19;13.70;99.90
71672;DHT22;67659;45.554;11.812;2023-03-14T07:35:47;13.80;99.90
71672;DHT22;67659;45.554;11.812;2023-03-14T07:38:14;13.60;99.90
71672;DHT22;67659;45.554;11.812;2023-03-14T07:40:39;13.50;99.90
71672;DHT22;67659;45.554;11.812;2023-03-14T07:43:05;13.60;99.90
71672;DHT22;67659;45.554;11.812;2023-03-14T07:45:31;13.60;99.90
71672;DHT22;67659;45.554;11.812;2023-03-14T07:47:57;13.90;99.90
71672;DHT22;67659;45.554;11.812;2023-03-14T07:50:26;14.10;99.90
71672;DHT22;67659;45.554;11.812;2023-03-14T07:52:53;14.20;99.90
71672;DHT22;67659;45.554;11.812;2023-03-14T07:55:18;14.30;99.90
71672;DHT22;67659;45.554;11.812;2023-03-14T07:57:44;14.40;99.90
71672;DHT22;67659;45.554;11.812;2023-03-14T08:00:10;14.30;99.90
71672;DHT22;67659;45.554;11.812;2023-03-14T08:02:36;14.30;99.90
71672;DHT22;67659;45.554;11.812;2023-03-14T08:05:03;14.30;99.90
71672;DHT22;67659;45.554;11.812;2023-03-14T08:07:29;14.40;99.90
71672;DHT22;67659;45.554;11.812;2023-03-14T08:09:55;14.40;99.90
71672;DHT22;67659;45.554;11.812;2023-03-14T08:12:21;14.50;99.90
71672;DHT22;67659;45.554;11.812;2023-03-14T08:14:47;14.40;99.90
71672;DHT22;67659;45.554;11.812;2023-03-14T08:17:12;14.50;99.90
71672;DHT22;67659;45.554;11.812;2023-03-14T08:19:38;14.50;99.90
71672;DHT22;67659;45.554;11.812;2023-03-14T08:22:04;14.60;99.90
71672;DHT22;67659;45.554;11.812;2023-03-14T08:24:30;14.60;99.90
71672;DHT22;67659;45.554;11.812;2023-03-14T08:26:56;14.60;99.90
71672;DHT22;67659;45.554;11.812;2023-03-14T08:29:22;14.60;99.90
71672;DHT22;67659;45.554;11.812;2023-03-14T08:31:48;14.60;99.90
71672;DHT22;67659;45.554;11.812;2023-03-14T08:34:14;14.80;99.90
71672;DHT22;67659;45.554;11.812;2023-03-14T08:36:40;14.90;99.90
71672;DHT22;67659;45.554;11.812;2023-03-14T08:39:07;14.80;99.90
71672;DHT22;67659;45.554;11.812;2023-03-14T08:41:33;14.90;99.90
71672;DHT22;67659;45.554;11.812;2023-03-14T08:44:08;15.10;99.90
71672;DHT22;67659;45.554;11.812;2023-03-14T08:46:34;15.00;99.90
71672;DHT22;67659;45.554;11.812;2023-03-14T08:49:00;15.00;99.90
71672;DHT22;67659;45.554;11.812;2023-03-14T08:51:26;15.00;99.90
71672;DHT22;67659;45.554;11.812;2023-03-14T08:53:52;15.00;99.90
71672;DHT22;67659;45.554;11.812;2023-03-14T08:56:18;15.00;99.90
71672;DHT22;67659;45.554;11.812;2023-03-14T08:58:43;15.10;99.90
71672;DHT22;67659;45.554;11.812;2023-03-14T09:01:10;15.10;99.90
71672;DHT22;67659;45.554;11.812;2023-03-14T09:03:37;15.10;99.90
71672;DHT22;67659;45.554;11.812;2023-03-14T09:06:08;15.10;99.90
71672;DHT22;67659;45.554;11.812;2023-03-14T09:08:35;15.10;99.90
71672;DHT22;67659;45.554;11.812;2023-03-14T09:11:01;15.20;99.90
71672;DHT22;67659;45.554;11.812;2023-03-14T09:13:27;15.40;99.90
71672;DHT22;67659;45.554;11.812;2023-03-14T09:15:56;15.70;99.90
71672;DHT22;67659;45.554;11.812;2023-03-14T09:18:22;15.90;99.90
71672;DHT22;67659;45.554;11.812;2023-03-14T09:20:49;16.10;99.90
71672;DHT22;67659;45.554;11.812;2023-03-14T09:23:15;16.10;99.90
71672;DHT22;67659;45.554;11.812;2023-03-14T09:25:41;16.00;99.90
71672;DHT22;67659;45.554;11.812;2023-03-14T09:28:07;15.90;99.90
71672;DHT22;67659;45.554;11.812;2023-03-14T09:30:32;15.70;99.90
71672;DHT22;67659;45.554;11.812;2023-03-14T09:32:58;15.50;99.90
71672;DHT22;67659;45.554;11.812;2023-03-14T09:35:24;15.50;99.90
71672;DHT22;67659;45.554;11.812;2023-03-14T09:37:51;15.30;99.90
71672;DHT22;67659;45.554;11.812;2023-03-14T09:40:20;15.20;99.90
71672;DHT22;67659;45.554;11.812;2023-03-14T09:42:53;15.20;99.90
71672;DHT22;67659;45.554;11.812;2023-03-14T09:45:25;15.20;99.90
71672;DHT22;67659;45.554;11.812;2023-03-14T09:47:53;15.30;99.90
71672;DHT22;67659;45.554;11.812;2023-03-14T09:50:20;15.20;99.90
71672;DHT22;67659;45.554;11.812;2023-03-14T09:52:49;15.30;99.90
71672;DHT22;67659;45.554;11.812;2023-03-14T09:55:20;15.20;99.90
71672;DHT22;67659;45.554;11.812;2023-03-14T09:57:48;15.30;99.90
71672;DHT22;67659;45.554;11.812;2023-03-14T10:02:45;15.30;99.90
71672;DHT22;67659;45.554;11.812;2023-03-14T10:05:17;15.40;99.90
71672;DHT22;67659;45.554;11.812;2023-03-14T10:07:44;15.40;99.90
71672;DHT22;67659;45.554;11.812;2023-03-14T10:10:17;15.40;99.90
71672;DHT22;67659;45.554;11.812;2023-03-14T10:12:46;15.40;99.90
71672;DHT22;67659;45.554;11.812;2023-03-14T10:15:14;15.60;99.90
71672;DHT22;67659;45.554;11.812;2023-03-14T10:17:52;15.50;99.90
71672;DHT22;67659;45.554;11.812;2023-03-14T10:20:36;15.50;99.90
71672;DHT22;67659;45.554;11.812;2023-03-14T10:23:06;15.60;99.90
71672;DHT22;67659;45.554;11.812;2023-03-14T10:25:34;15.60;99.90
71672;DHT22;67659;45.554;11.812;2023-03-14T10:28:01;15.60;99.90
71672;DHT22;67659;45.554;11.812;2023-03-14T10:30:38;15.60;99.90
71672;DHT22;67659;45.554;11.812;2023-03-14T10:35:36;15.60;99.90
71672;DHT22;67659;45.554;11.812;2023-03-14T10:38:04;15.60;99.90
71672;DHT22;67659;45.554;11.812;2023-03-14T10:40:38;15.50;99.90
71672;DHT22;67659;45.554;11.812;2023-03-14T10:43:06;15.40;99.90
71672;DHT22;67659;45.554;11.812;2023-03-14T10:45:38;15.60;99.90
71672;DHT22;67659;45.554;11.812;2023-03-14T10:48:21;15.80;99.90
71672;DHT22;67659;45.554;11.812;2023-03-14T10:51:03;15.70;99.90
71672;DHT22;67659;45.554;11.812;2023-03-14T10:53:47;15.80;99.90
71672;DHT22;67659;45.554;11.812;2023-03-14T10:56:19;15.70;99.90
71672;DHT22;67659;45.554;11.812;2023-03-14T10:58:47;15.70;99.90
71672;DHT22;67659;45.554;11.812;2023-03-14T11:03:49;15.50;99.90
71672;DHT22;67659;45.554;11.812;2023-03-14T11:06:23;15.40;99.90
71672;DHT22;67659;45.554;11.812;2023-03-14T11:09:01;15.40;99.90
71672;DHT22;67659;45.554;11.812;2023-03-14T11:11:31;15.50;99.90
71672;DHT22;67659;45.554;11.812;2023-03-14T11:22:23;15.90;99.90
71672;DHT22;67659;45.554;11.812;2023-03-14T11:25:06;15.90;99.90
71672;DHT22;67659;45.554;11.812;2023-03-14T11:27:42;15.80;99.90
71672;DHT22;67659;45.554;11.812;2023-03-14T11:30:26;15.70;99.90
71672;DHT22;67659;45.554;11.812;2023-03-14T11:33:08;15.50;99.90
71672;DHT22;67659;45.554;11.812;2023-03-14T11:38:37;15.30;99.90
71672;DHT22;67659;45.554;11.812;2023-03-14T11:41:20;15.40;99.90
71672;DHT22;67659;45.554;11.812;2023-03-14T11:43:51;15.70;99.90
71672;DHT22;67659;45.554;11.812;2023-03-14T11:46:28;15.60;99.90
71672;DHT22;67659;45.554;11.812;2023-03-14T11:49:02;15.70;99.90
71672;DHT22;67659;45.554;11.812;2023-03-14T11:51:36;15.70;99.90
71672;DHT22;67659;45.554;11.812;2023-03-14T11:54:17;15.70;99.90
71672;DHT22;67659;45.554;11.812;2023-03-14T11:56:59;15.80;99.90
71672;DHT22;67659;45.554;11.812;2023-03-14T11:59:45;15.60;99.90
71672;DHT22;67659;45.554;11.812;2023-03-14T12:02:39;15.50;99.90
71672;DHT22;67659;45.554;11.812;2023-03-14T12:13:11;16.10;99.90
71672;DHT22;67659;45.554;11.812;2023-03-14T12:15:55;16.10;99.90
71672;DHT22;67659;45.554;11.812;2023-03-14T12:18:33;16.40;99.90
71672;DHT22;67659;45.554;11.812;2023-03-14T12:21:02;16.70;99.90
71672;DHT22;67659;45.554;11.812;2023-03-14T12:23:49;16.90;99.90
71672;DHT22;67659;45.554;11.812;2023-03-14T12:26:22;17.00;99.90
71672;DHT22;67659;45.554;11.812;2023-03-14T12:31:48;17.10;99.90
71672;DHT22;67659;45.554;11.812;2023-03-14T12:39:35;16.80;99.90
71672;DHT22;67659;45.554;11.812;2023-03-14T12:47:54;16.90;99.90
71672;DHT22;67659;45.554;11.812;2023-03-14T12:50:25;17.00;99.90
71672;DHT22;67659;45.554;11.812;2023-03-14T13:01:27;17.50;99.90
71672;DHT22;67659;45.554;11.812;2023-03-14T13:03:56;17.40;99.90
71672;DHT22;67659;45.554;11.812;2023-03-14T13:06:53;17.40;99.90
71672;DHT22;67659;45.554;11.812;2023-03-14T13:11:53;16.80;99.90
71672;DHT22;67659;45.554;11.812;2023-03-14T13:14:20;16.60;99.90
71672;DHT22;67659;45.554;11.812;2023-03-14T13:16:49;16.30;99.90
71672;DHT22;67659;45.554;11.812;2023-03-14T13:19:21;16.30;99.90
71672;DHT22;67659;45.554;11.812;2023-03-14T13:21:50;16.60;99.90
71672;DHT22;67659;45.554;11.812;2023-03-14T13:24:25;17.10;99.90
71672;DHT22;67659;45.554;11.812;2023-03-14T13:26:55;17.00;99.90
71672;DHT22;67659;45.554;11.812;2023-03-14T13:29:31;17.20;99.90
71672;DHT22;67659;45.554;11.812;2023-03-14T13:32:00;17.30;99.90
71672;DHT22;67659;45.554;11.812;2023-03-14T13:34:32;17.40;99.90
71672;DHT22;67659;45.554;11.812;2023-03-14T13:36:59;17.40;99.90
71672;DHT22;67659;45.554;11.812;2023-03-14T13:39:26;17.30;99.90
71672;DHT22;67659;45.554;11.812;2023-03-14T13:41:58;17.30;99.90
71672;DHT22;67659;45.554;11.812;2023-03-14T13:44:31;17.10;99.90
71672;DHT22;67659;45.554;11.812;2023-03-14T13:47:00;16.80;99.90
71672;DHT22;67659;45.554;11.812;2023-03-14T13:49:28;16.60;99.90
71672;DHT22;67659;45.554;11.812;2023-03-14T13:51:56;16.40;99.90
71672;DHT22;67659;45.554;11.812;2023-03-14T13:54:23;16.30;99.90
71672;DHT22;67659;45.554;11.812;2023-03-14T13:57:00;16.30;99.90
71672;DHT22;67659;45.554;11.812;2023-03-14T13:59:33;16.50;99.90
71672;DHT22;67659;45.554;11.812;2023-03-14T14:02:12;16.70;99.90
71672;DHT22;67659;45.554;11.812;2023-03-14T14:04:39;16.90;99.90
71672;DHT22;67659;45.554;11.812;2023-03-14T14:07:10;17.30;99.90
71672;DHT22;67659;45.554;11.812;2023-03-14T14:09:40;17.80;99.90
71672;DHT22;67659;45.554;11.812;2023-03-14T14:14:57;19.00;99.10
71672;DHT22;67659;45.554;11.812;2023-03-14T14:18:12;19.00;97.80
71672;DHT22;67659;45.554;11.812;2023-03-14T14:20:35;19.10;98.40
71672;DHT22;67659;45.554;11.812;2023-03-14T14:23:07;19.30;98.30
71672;DHT22;67659;45.554;11.812;2023-03-14T14:25:36;19.50;97.00
71672;DHT22;67659;45.554;11.812;2023-03-14T14:28:41;19.40;96.90
71672;DHT22;67659;45.554;11.812;2023-03-14T14:31:17;18.90;97.20
71672;DHT22;67659;45.554;11.812;2023-03-14T14:34:03;18.70;97.10
71672;DHT22;67659;45.554;11.812;2023-03-14T14:36:36;18.60;98.10
71672;DHT22;67659;45.554;11.812;2023-03-14T14:39:15;20.40;96.10
71672;DHT22;67659;45.554;11.812;2023-03-14T14:41:42;22.30;80.70
71672;DHT22;67659;45.554;11.812;2023-03-14T14:44:12;24.10;73.10
71672;DHT22;67659;45.554;11.812;2023-03-14T14:46:39;24.70;67.00
71672;DHT22;67659;45.554;11.812;2023-03-14T14:49:14;23.90;64.00
71672;DHT22;67659;45.554;11.812;2023-03-14T14:51:48;23.80;66.20
71672;DHT22;67659;45.554;11.812;2023-03-14T14:54:31;23.20;71.50
71672;DHT22;67659;45.554;11.812;2023-03-14T14:57:02;21.60;74.70
71672;DHT22;67659;45.554;11.812;2023-03-14T14:59:28;21.60;77.30
71672;DHT22;67659;45.554;11.812;2023-03-14T15:01:59;21.30;77.50
71672;DHT22;67659;45.554;11.812;2023-03-14T15:04:26;20.10;84.50
71672;DHT22;67659;45.554;11.812;2023-03-14T15:06:52;19.90;86.10
71672;DHT22;67659;45.554;11.812;2023-03-14T15:09:19;19.10;94.70
71672;DHT22;67659;45.554;11.812;2023-03-14T15:11:46;19.20;93.40
71672;DHT22;67659;45.554;11.812;2023-03-14T15:14:12;19.10;93.80
71672;DHT22;67659;45.554;11.812;2023-03-14T15:16:39;19.10;93.20
71672;DHT22;67659;45.554;11.812;2023-03-14T15:19:26;19.10;93.70
71672;DHT22;67659;45.554;11.812;2023-03-14T15:21:54;19.00;94.20
71672;DHT22;67659;45.554;11.812;2023-03-14T15:24:21;18.90;94.30
71672;DHT22;67659;45.554;11.812;2023-03-14T15:26:47;18.90;93.90
71672;DHT22;67659;45.554;11.812;2023-03-14T15:29:13;18.60;95.90
71672;DHT22;67659;45.554;11.812;2023-03-14T15:31:40;18.80;95.00
71672;DHT22;67659;45.554;11.812;2023-03-14T15:34:06;19.10;93.70
71672;DHT22;67659;45.554;11.812;2023-03-14T15:36:33;19.50;93.50
71672;DHT22;67659;45.554;11.812;2023-03-14T15:39:01;19.50;91.80
71672;DHT22;67659;45.554;11.812;2023-03-14T15:41:28;18.90;94.10
71672;DHT22;67659;45.554;11.812;2023-03-14T15:43:54;18.40;95.50
71672;DHT22;67659;45.554;11.812;2023-03-14T15:46:20;18.20;96.10
71672;DHT22;67659;45.554;11.812;2023-03-14T15:48:48;17.60;99.60
71672;DHT22;67659;45.554;11.812;2023-03-14T15:51:14;16.90;99.90
71672;DHT22;67659;45.554;11.812;2023-03-14T15:53:41;16.90;99.90
71672;DHT22;67659;45.554;11.812;2023-03-14T15:56:15;16.80;99.90
71672;DHT22;67659;45.554;11.812;2023-03-14T15:58:42;16.60;99.90
71672;DHT22;67659;45.554;11.812;2023-03-14T16:01:13;16.40;99.90
71672;DHT22;67659;45.554;11.812;2023-03-14T16:03:39;16.10;99.90
71672;DHT22;67659;45.554;11.812;2023-03-14T16:06:05;16.20;99.90
71672;DHT22;67659;45.554;11.812;2023-03-14T16:08:31;16.20;99.90
71672;DHT22;67659;45.554;11.812;2023-03-14T16:10:58;16.10;99.90
71672;DHT22;67659;45.554;11.812;2023-03-14T16:13:24;16.30;99.90
71672;DHT22;67659;45.554;11.812;2023-03-14T16:15:55;16.30;99.90
71672;DHT22;67659;45.554;11.812;2023-03-14T16:18:21;16.40;99.90
71672;DHT22;67659;45.554;11.812;2023-03-14T16:21:02;16.20;99.90
71672;DHT22;67659;45.554;11.812;2023-03-14T16:23:30;16.20;99.90
71672;DHT22;67659;45.554;11.812;2023-03-14T16:25:57;15.90;99.90